KHBG/HBG METAR and TAF weather

Enter ICAO airport designator
Station Type Date Time Source
KHBG METAR 2019/02/17 15:53 UTC NOAA

KHBG 171553Z AUTO 21007KT 180V250 10SM BKN019 OVC024 22/17 A2987 RMK AO2 SLP111 T02170172 $


Station Type Date Time Source
KHBG Decoded METAR 2019/02/17 15:53 UTC NOAA

HATTIESBURG CHAIN MUNICIPAL, MS, United States (KHBG) 31-16N 89-15W 44M
Feb 17, 2019 - 10:53 AM EST / 2019.02.17 1553 UTC
Wind: from the SSW (210 degrees) at 8 MPH (7 KT) (direction variable):0
Visibility: 10 mile(s):0
Sky conditions: overcast
Temperature: 71.1 F (21.7 C)
Dew Point: 63.0 F (17.2 C)
Relative Humidity: 75%
Pressure (altimeter): 29.87 in. Hg (1011 hPa)
ob: KHBG 171553Z AUTO 21007KT 180V250 10SM BKN019 OVC024 22/17 A2987 RMK AO2 SLP111 T02170172
cycle: 16

Station Type Date Time Source
KHBG TAF 2019/02/17 12:22 UTC NOAA

TAF KHBG 171120Z 1712/1812 17005KT P6SM OVC010
FM171400 19004KT P6SM OVC007
FM171700 21008KT P6SM BKN012 OVC040
FM180000 30010KT P6SM OVC012
FM180300 35011KT 5SM -RA BR OVC007
FM180900 36012KT P6SM SCT015 OVC040


Example: see airport list